Time;durP1;ratioP1;P1;durP2;ratioP2;P2;SDS_P1;SDS_P2;PMS_P1;PMS_P2;Temp;Humidity;BMP_temperature;BMP_pressure;BME280_temperature;BME280_humidity;BME280_pressure;Samples;Min_cycle;Max_cycle;Signal;HPM_P1;HPM_P2
2024/01/08 00:00:51;;;;;;;6.28;3.60;;;;;;;1.00;72.96;101723.31;8457243;28;20494;-58
2024/01/08 00:04:52;;;;;;;5.40;3.80;;;;;;;1.03;73.46;101718.75;8428799;28;20434;-55
2024/01/08 00:08:52;;;;;;;10.68;4.63;;;;;;;1.01;74.50;101730.41;8399469;28;20100;-55
2024/01/08 00:12:52;;;;;;;6.78;4.28;;;;;;;0.99;75.37;101738.44;8398980;28;20123;-56
2024/01/08 00:16:53;;;;;;;10.60;5.10;;;;;;;1.00;75.49;101728.63;8359340;28;20040;-56
2024/01/08 00:20:54;;;;;;;10.63;5.40;;;;;;;0.98;75.04;101725.16;8367099;27;20697;-55
2024/01/08 00:24:54;;;;;;;9.50;4.93;;;;;;;0.96;74.87;101733.22;8363147;28;20567;-55
2024/01/08 00:28:55;;;;;;;9.73;5.28;;;;;;;0.95;75.03;101727.94;8382729;28;20186;-55
2024/01/08 00:32:55;;;;;;;9.95;5.70;;;;;;;0.95;74.54;101722.63;8379048;28;20036;-55
2024/01/08 00:36:55;;;;;;;7.80;4.93;;;;;;;0.96;74.42;101716.34;8404709;28;20055;-55
2024/01/08 00:40:56;;;;;;;8.85;4.85;;;;;;;1.00;74.28;101723.31;8404496;28;20088;-53
2024/01/08 00:44:56;;;;;;;11.13;5.28;;;;;;;1.00;74.21;101723.31;8384640;28;20092;-56
2024/01/08 00:48:57;;;;;;;10.02;5.10;;;;;;;1.01;73.51;101725.06;8412248;28;20054;-56
2024/01/08 00:52:57;;;;;;;5.45;3.38;;;;;;;1.01;71.63;101719.75;8402914;28;20228;-55
2024/01/08 00:56:58;;;;;;;4.95;3.40;;;;;;;1.01;69.94;101719.75;8401815;28;20040;-58
2024/01/08 01:00:58;;;;;;;6.50;3.83;;;;;;;1.02;69.70;101732.13;8383616;28;20327;-58
2024/01/08 01:04:58;;;;;;;5.18;3.17;;;;;;;1.05;69.45;101729.34;8402100;28;20043;-58
2024/01/08 01:09:00;;;;;;;5.97;3.33;;;;;;;1.00;69.12;101728.63;8423710;28;20210;-58
2024/01/08 01:13:01;;;;;;;6.38;2.88;;;;;;;1.04;68.45;101724.97;8402336;28;20181;-58
2024/01/08 01:17:01;;;;;;;4.15;3.13;;;;;;;1.04;69.42;101730.28;8402328;28;20036;-59
2024/01/08 01:21:02;;;;;;;7.50;3.80;;;;;;;1.03;68.68;101734.75;8402548;28;20789;-58
2024/01/08 01:25:02;;;;;;;4.32;3.50;;;;;;;1.05;69.62;101737.34;8402612;28;20120;-58
2024/01/08 01:29:03;;;;;;;6.88;3.65;;;;;;;1.10;69.55;101743.41;8401995;28;20031;-57
2024/01/08 01:33:03;;;;;;;5.53;3.60;;;;;;;1.11;70.79;101742.47;8417839;27;20275;-58
2024/01/08 01:37:04;;;;;;;9.00;3.95;;;;;;;1.10;69.77;101743.41;8381337;28;20256;-59
2024/01/08 01:41:04;;;;;;;5.10;3.70;;;;;;;1.08;70.38;101737.25;8402543;28;20264;-58
2024/01/08 01:45:06;;;;;;;6.78;4.32;;;;;;;1.09;70.72;101744.31;8399146;28;20425;-59
2024/01/08 01:49:12;;;;;;;5.93;4.30;;;;;;;0.99;70.82;101748.19;8401354;28;20520;-58
2024/01/08 01:53:13;;;;;;;8.52;4.32;;;;;;;1.09;71.55;101744.31;8400092;28;20035;-58
2024/01/08 01:57:13;;;;;;;7.13;4.03;;;;;;;1.03;71.15;101748.06;8399800;28;20289;-58
2024/01/08 02:01:13;;;;;;;9.00;5.10;;;;;;;1.08;70.87;101747.91;8402054;28;20454;-56
2024/01/08 02:05:14;;;;;;;6.72;4.35;;;;;;;1.02;70.85;101746.31;8439492;28;20043;-58
2024/01/08 02:09:15;;;;;;;7.22;4.93;;;;;;;1.02;71.05;101737.44;8456491;28;20126;-57
2024/01/08 02:13:15;;;;;;;7.50;4.40;;;;;;;0.98;70.36;101735.81;8456706;28;20648;-57
2024/01/08 02:17:17;;;;;;;8.05;4.47;;;;;;;0.98;71.13;101735.81;8457248;28;20516;-57
2024/01/08 02:21:17;;;;;;;6.90;3.90;;;;;;;0.98;71.32;101741.16;8456785;28;20109;-57
2024/01/08 02:25:18;;;;;;;7.38;4.68;;;;;;;0.97;71.21;101728.72;8456734;28;20088;-58
2024/01/08 02:29:21;;;;;;;5.75;4.20;;;;;;;0.91;71.70;101736.94;8438006;28;20319;-57
2024/01/08 02:33:22;;;;;;;7.23;4.90;;;;;;;0.88;71.97;101734.38;8456230;28;20046;-58
2024/01/08 02:37:22;;;;;;;7.88;4.38;;;;;;;0.89;72.83;101738.78;8401743;28;20043;-55
2024/01/08 02:41:22;;;;;;;9.30;5.50;;;;;;;0.87;72.59;101733.50;8399323;28;20165;-56
2024/01/08 02:45:23;;;;;;;8.35;4.75;;;;;;;0.85;72.29;101740.66;8398915;28;20556;-53
2024/01/08 02:49:23;;;;;;;10.63;4.93;;;;;;;0.91;73.02;101740.47;8399433;28;20214;-53
2024/01/08 02:53:24;;;;;;;7.40;4.72;;;;;;;0.90;73.10;101744.06;8398710;28;20186;-54
2024/01/08 02:57:26;;;;;;;7.32;4.75;;;;;;;0.89;73.59;101746.78;8397841;28;20276;-57
2024/01/08 03:01:27;;;;;;;8.15;4.60;;;;;;;0.77;72.66;101747.16;8394905;28;20262;-56
2024/01/08 03:05:27;;;;;;;7.22;4.57;;;;;;;0.81;72.75;101743.47;8378868;28;20270;-57
2024/01/08 03:09:29;;;;;;;7.47;4.38;;;;;;;0.80;73.26;101749.72;8400126;28;20118;-55
2024/01/08 03:13:29;;;;;;;6.88;4.10;;;;;;;0.78;72.92;101759.53;8399818;28;20036;-56
2024/01/08 03:17:30;;;;;;;10.25;4.85;;;;;;;0.76;71.73;101761.41;8395511;28;20758;-54
2024/01/08 03:21:30;;;;;;;6.50;4.35;;;;;;;0.73;71.90;101757.03;8398648;28;20035;-55
2024/01/08 03:25:31;;;;;;;6.50;4.10;;;;;;;0.74;71.88;101761.44;8398758;28;20730;-54
2024/01/08 03:29:31;;;;;;;7.95;4.72;;;;;;;0.74;73.15;101765.88;8399168;28;20722;-55
2024/01/08 03:33:31;;;;;;;8.43;4.60;;;;;;;0.64;73.48;101773.28;8441055;28;20043;-58
2024/01/08 03:37:32;;;;;;;6.85;4.55;;;;;;;0.66;73.80;101770.56;8455307;28;20541;-58
2024/01/08 03:41:32;;;;;;;7.63;4.53;;;;;;;0.63;73.52;101770.66;8455446;28;20031;-58
2024/01/08 03:45:33;;;;;;;7.22;4.65;;;;;;;0.59;73.49;101774.34;8455232;28;20122;-58
2024/01/08 03:49:33;;;;;;;8.25;5.03;;;;;;;0.62;74.79;101769.81;8455402;28;20028;-57
2024/01/08 03:53:34;;;;;;;7.15;4.63;;;;;;;0.61;75.37;101772.50;8457560;28;20039;-57
2024/01/08 03:57:36;;;;;;;8.50;5.55;;;;;;;0.59;75.17;101769.03;8461229;28;20028;-57
2024/01/08 04:01:43;;;;;;;10.10;5.68;;;;;;;0.52;75.22;101772.78;8461245;28;20543;-58
2024/01/08 04:05:43;;;;;;;12.07;6.18;;;;;;;0.49;76.08;101778.22;8473266;27;20036;-58
2024/01/08 04:09:45;;;;;;;10.70;6.15;;;;;;;0.45;75.82;101776.56;8476999;27;20047;-59
2024/01/08 04:13:45;;;;;;;9.93;6.20;;;;;;;0.49;76.33;101788.84;8422176;28;20043;-56
2024/01/08 04:17:46;;;;;;;12.30;6.50;;;;;;;0.46;77.17;101786.28;8405196;28;20283;-54
2024/01/08 04:21:46;;;;;;;15.25;6.88;;;;;;;0.45;76.68;101803.16;8405303;28;20044;-56
2024/01/08 04:25:46;;;;;;;10.48;6.68;;;;;;;0.40;77.30;101799.75;8444365;28;20163;-57
2024/01/08 04:29:47;;;;;;;12.95;7.22;;;;;;;0.39;77.25;101790.06;8428102;28;20655;-57
2024/01/08 04:33:48;;;;;;;15.00;7.97;;;;;;;0.32;78.21;101785.81;8461004;27;20036;-58
2024/01/08 04:37:49;;;;;;;11.23;7.40;;;;;;;0.36;78.61;101798.13;8422959;27;22076;-56
2024/01/08 04:41:49;;;;;;;14.02;6.95;;;;;;;0.30;79.11;101799.16;8374498;28;20479;-56
2024/01/08 04:45:50;;;;;;;11.77;7.60;;;;;;;0.24;80.24;101798.47;8359489;28;20225;-56
2024/01/08 04:49:50;;;;;;;12.10;7.55;;;;;;;0.32;80.72;101791.13;8360160;28;20299;-56
2024/01/08 04:53:51;;;;;;;20.52;8.38;;;;;;;0.22;80.70;101794.97;8360180;28;20138;-57
2024/01/08 04:57:52;;;;;;;12.55;8.27;;;;;;;0.21;81.37;101798.56;8359020;28;20189;-57
2024/01/08 05:01:52;;;;;;;14.60;8.82;;;;;;;0.22;81.76;101797.63;8368158;28;20719;-56
2024/01/08 05:05:53;;;;;;;17.02;8.38;;;;;;;0.21;82.02;101803.88;8448030;28;20040;-59
2024/01/08 05:09:53;;;;;;;15.65;9.73;;;;;;;0.22;82.48;101800.31;8457561;28;20418;-59
2024/01/08 05:13:55;;;;;;;20.33;10.35;;;;;;;0.20;82.90;101786.16;8458606;28;20047;-57
2024/01/08 05:17:55;;;;;;;22.70;11.60;;;;;;;0.20;82.81;101791.47;8458323;28;20096;-58
2024/01/08 05:21:56;;;;;;;17.75;10.52;;;;;;;0.19;83.04;101795.06;8457820;27;20122;-58
2024/01/08 05:25:59;;;;;;;22.65;11.70;;;;;;;0.26;82.91;101801.94;8461507;27;20446;-59
2024/01/08 05:29:59;;;;;;;22.83;12.27;;;;;;;0.21;83.14;101798.56;8456456;27;20405;-57
2024/01/08 05:33:59;;;;;;;22.75;11.80;;;;;;;0.23;83.46;101788.75;8450863;27;20047;-58
2024/01/08 05:38:01;;;;;;;24.60;12.43;;;;;;;0.23;83.68;101788.75;8457523;28;20043;-57
2024/01/08 05:42:02;;;;;;;22.92;12.15;;;;;;;0.23;84.29;101796.72;8452623;27;20088;-58
2024/01/08 05:46:04;;;;;;;20.13;10.90;;;;;;;0.23;83.86;101796.72;8456607;27;20088;-58
2024/01/08 05:50:05;;;;;;;20.08;10.95;;;;;;;0.22;84.61;101800.31;8442857;27;20040;-58
2024/01/08 05:54:06;;;;;;;23.92;11.02;;;;;;;0.23;84.25;101791.41;8455674;27;20040;-58
2024/01/08 05:58:06;;;;;;;20.00;11.00;;;;;;;0.22;84.62;101789.66;8443591;27;20063;-57
2024/01/08 06:02:07;;;;;;;22.52;11.98;;;;;;;0.22;86.12;101789.66;8390691;28;20441;-57
2024/01/08 06:06:07;;;;;;;24.70;12.80;;;;;;;0.23;86.09;101792.28;8425700;27;20043;-57
2024/01/08 06:10:08;;;;;;;24.88;12.35;;;;;;;0.19;86.32;101789.75;8446605;27;20043;-57
2024/01/08 06:14:08;;;;;;;22.88;12.23;;;;;;;0.16;86.74;101790.72;8442394;27;20042;-57
2024/01/08 06:18:09;;;;;;;24.27;12.45;;;;;;;0.20;87.84;101796.81;8398399;27;20355;-56
2024/01/08 06:22:09;;;;;;;23.30;12.48;;;;;;;0.17;86.96;101788.91;8405177;27;20110;-56
2024/01/08 06:26:11;;;;;;;25.05;12.45;;;;;;;0.15;87.27;101788.09;8426747;27;20092;-56
2024/01/08 06:30:12;;;;;;;25.65;13.40;;;;;;;0.20;87.47;101795.03;8410236;27;20329;-56
2024/01/08 06:34:12;;;;;;;23.15;12.25;;;;;;;0.16;86.66;101785.41;8410734;27;20224;-57
2024/01/08 06:38:12;;;;;;;26.15;12.50;;;;;;;0.21;86.56;101795.91;8415149;27;20279;-56
2024/01/08 06:42:13;;;;;;;22.65;11.88;;;;;;;0.22;86.68;101785.22;8399226;27;20433;-57
2024/01/08 06:46:13;;;;;;;23.95;12.80;;;;;;;0.23;86.84;101783.41;8393800;27;20325;-56
2024/01/08 06:50:14;;;;;;;28.02;12.75;;;;;;;0.27;85.90;101777.13;8396610;27;20131;-58
2024/01/08 06:54:14;;;;;;;26.10;12.80;;;;;;;0.28;86.07;101778.84;8421191;27;20099;-59
2024/01/08 06:58:15;;;;;;;21.98;12.85;;;;;;;0.29;85.58;101781.47;8446799;27;20047;-58
2024/01/08 07:02:16;;;;;;;20.45;10.65;;;;;;;0.30;85.21;101777.88;8454947;27;20039;-58
2024/01/08 07:06:17;;;;;;;19.27;10.30;;;;;;;0.37;86.05;101774.13;8454745;27;20550;-58
2024/01/08 07:10:20;;;;;;;21.48;10.65;;;;;;;0.36;84.32;101779.50;8454552;27;20454;-58
2024/01/08 07:14:20;;;;;;;18.48;10.32;;;;;;;0.35;83.10;101780.41;8454053;27;20497;-58
2024/01/08 07:18:21;;;;;;;17.83;9.48;;;;;;;0.35;81.76;101786.59;8454128;28;20436;-57
2024/01/08 07:22:22;;;;;;;19.55;9.35;;;;;;;0.41;81.75;101801.50;8455362;28;20062;-58
2024/01/08 07:26:23;;;;;;;14.77;8.25;;;;;;;0.43;81.06;101789.91;8454702;27;20042;-58
2024/01/08 07:30:23;;;;;;;13.93;8.13;;;;;;;0.46;80.02;101794.25;8459914;27;20043;-56
2024/01/08 07:34:24;;;;;;;15.52;7.78;;;;;;;0.49;78.78;101796.84;8460305;27;20073;-56
2024/01/08 07:38:24;;;;;;;15.13;7.65;;;;;;;0.63;77.93;101802.59;8461654;28;20051;-57
2024/01/08 07:42:25;;;;;;;15.45;6.63;;;;;;;0.63;77.76;101807.91;8447353;27;20028;-59
2024/01/08 07:46:25;;;;;;;11.57;6.75;;;;;;;0.66;77.57;101810.47;8460974;27;20059;-59
2024/01/08 07:50:26;;;;;;;13.13;7.22;;;;;;;0.63;76.91;101808.78;8461414;27;20063;-58
2024/01/08 07:54:26;;;;;;;10.13;6.40;;;;;;;0.60;76.76;101795.56;8460441;27;20410;-59
2024/01/08 07:58:27;;;;;;;12.35;5.93;;;;;;;0.67;77.34;101804.25;8451459;27;20040;-59
2024/01/08 08:02:27;;;;;;;10.45;6.63;;;;;;;0.66;76.35;101803.38;8459879;28;20045;-58
2024/01/08 08:06:30;;;;;;;10.13;6.32;;;;;;;0.65;76.32;101811.41;8475593;27;20040;-58
2024/01/08 08:10:31;;;;;;;10.73;6.57;;;;;;;0.71;76.14;101814.75;8457145;27;20040;-57
2024/01/08 08:14:31;;;;;;;10.68;6.10;;;;;;;0.71;75.83;101805.91;8457285;27;20036;-59
2024/01/08 08:18:32;;;;;;;11.70;5.82;;;;;;;0.72;75.80;101805.84;8454079;27;20028;-56
2024/01/08 08:22:32;;;;;;;8.45;5.15;;;;;;;0.79;74.37;101810.06;8455075;27;20036;-58
2024/01/08 08:26:33;;;;;;;7.50;5.20;;;;;;;0.87;73.95;101818.69;8457247;28;20036;-57
2024/01/08 08:30:34;;;;;;;12.45;6.18;;;;;;;0.87;73.88;101817.81;8458449;28;20050;-58
2024/01/08 08:34:36;;;;;;;7.93;5.05;;;;;;;0.87;74.93;101824.00;8458625;28;20031;-57
2024/01/08 08:38:37;;;;;;;8.93;5.95;;;;;;;0.83;75.75;101826.81;8456710;27;20089;-58
2024/01/08 08:42:37;;;;;;;9.25;5.95;;;;;;;0.81;75.19;101833.97;8474846;27;20043;-58
2024/01/08 08:46:39;;;;;;;7.75;5.57;;;;;;;0.85;74.80;101840.97;8443327;28;20046;-58
2024/01/08 08:50:39;;;;;;;8.52;4.75;;;;;;;0.87;75.19;101839.09;8457341;28;20040;-56
2024/01/08 08:54:39;;;;;;;9.15;5.80;;;;;;;0.86;75.02;101840.91;8439669;28;20031;-57
2024/01/08 08:58:40;;;;;;;9.27;5.47;;;;;;;0.86;75.49;101837.38;8457355;28;20444;-57
2024/01/08 09:02:42;;;;;;;10.45;5.85;;;;;;;0.86;76.49;101842.69;8457814;28;20035;-57
2024/01/08 09:06:42;;;;;;;8.68;5.80;;;;;;;0.89;75.84;101839.94;8457069;28;20063;-56
2024/01/08 09:10:43;;;;;;;9.82;5.43;;;;;;;1.00;75.43;101846.66;8457005;28;20065;-59
2024/01/08 09:14:43;;;;;;;8.05;4.60;;;;;;;1.11;74.48;101843.66;8456546;27;20062;-55
2024/01/08 09:18:45;;;;;;;11.15;5.15;;;;;;;1.18;74.20;101850.53;8456402;27;21226;-59
2024/01/08 09:22:45;;;;;;;8.73;4.75;;;;;;;1.23;73.08;101836.16;8456252;27;20046;-57
2024/01/08 09:26:46;;;;;;;7.90;4.88;;;;;;;1.29;72.48;101843.06;8456639;28;20035;-58
2024/01/08 09:30:47;;;;;;;10.45;5.53;;;;;;;1.31;71.82;101846.56;8455665;27;20035;-58
2024/01/08 09:34:48;;;;;;;6.25;4.75;;;;;;;1.41;71.59;101848.00;8456114;27;20090;-58
2024/01/08 09:38:49;;;;;;;9.25;5.05;;;;;;;1.43;71.61;101856.78;8456185;28;22359;-56
2024/01/08 09:42:55;;;;;;;8.10;4.88;;;;;;;1.37;72.43;101854.34;8455443;27;20099;-58
2024/01/08 09:46:56;;;;;;;7.40;4.43;;;;;;;1.13;74.76;101860.47;8455253;27;20043;-59
2024/01/08 09:50:59;;;;;;;9.82;5.65;;;;;;;1.07;76.24;101869.50;8454570;27;20040;-58
2024/01/08 09:55:00;;;;;;;10.13;5.63;;;;;;;1.00;77.04;101867.06;8455204;27;20036;-57
2024/01/08 09:59:00;;;;;;;15.23;6.35;;;;;;;1.02;78.30;101870.56;8455081;27;20316;-57
2024/01/08 10:03:01;;;;;;;9.80;5.30;;;;;;;1.03;78.16;101857.22;8454877;27;20050;-58
2024/01/08 10:07:04;;;;;;;11.82;5.88;;;;;;;1.12;77.18;101851.59;8454391;27;20039;-58
2024/01/08 10:11:06;;;;;;;10.38;6.38;;;;;;;1.08;78.41;101854.41;8455837;27;20080;-58
2024/01/08 10:15:08;;;;;;;11.60;5.82;;;;;;;1.36;77.14;101855.25;8454332;28;20036;-57
2024/01/08 10:19:12;;;;;;;9.70;5.82;;;;;;;1.44;75.85;101840.75;8454888;27;20411;-56
2024/01/08 10:23:16;;;;;;;9.65;5.50;;;;;;;1.59;74.68;101842.91;8454292;27;20114;-57
2024/01/08 10:27:19;;;;;;;8.38;5.47;;;;;;;1.61;73.77;101833.06;8454118;27;20040;-55
2024/01/08 10:31:20;;;;;;;7.28;5.28;;;;;;;1.64;73.18;101846.28;8450594;28;20047;-56
2024/01/08 10:35:20;;;;;;;11.05;6.13;;;;;;;2.05;73.46;101836.88;8454026;28;20042;-57
2024/01/08 10:39:22;;;;;;;10.88;6.05;;;;;;;2.24;71.86;101840.59;8453744;27;20046;-56
2024/01/08 10:43:24;;;;;;;9.18;5.65;;;;;;;2.27;70.97;101837.81;8453255;28;20089;-56
2024/01/08 10:47:26;;;;;;;6.90;5.32;;;;;;;2.73;70.34;101837.84;8453303;27;20436;-56
2024/01/08 10:51:28;;;;;;;9.80;5.93;;;;;;;2.25;70.79;101828.16;8453896;27;20040;-56
2024/01/08 10:55:30;;;;;;;8.43;5.43;;;;;;;1.95;69.73;101822.97;8453296;27;20043;-55
2024/01/08 10:59:32;;;;;;;12.43;4.93;;;;;;;1.76;69.85;101819.22;8453254;27;20055;-58
2024/01/08 11:03:32;;;;;;;8.75;5.63;;;;;;;1.65;69.75;101820.53;8452590;27;20499;-56
2024/01/08 11:07:36;;;;;;;8.60;4.95;;;;;;;1.67;70.41;101824.00;8453064;27;20114;-56
2024/01/08 11:11:37;;;;;;;10.70;5.07;;;;;;;1.87;69.05;101821.50;8453457;28;20039;-57
2024/01/08 11:15:40;;;;;;;7.72;4.68;;;;;;;1.90;66.49;101819.59;8453252;28;20051;-58
2024/01/08 11:19:45;;;;;;;9.18;4.85;;;;;;;1.86;65.43;101814.44;8451070;28;20040;-56
2024/01/08 11:23:47;;;;;;;6.45;4.38;;;;;;;2.11;63.82;101828.66;8452573;28;20085;-56
2024/01/08 11:27:48;;;;;;;7.32;4.85;;;;;;;1.82;62.99;101818.13;8449141;27;20042;-56
2024/01/08 11:32:26;;;;;;;9.25;4.60;;;;;;;1.63;63.39;101822.38;8452992;28;20047;-56
2024/01/08 11:36:48;;;;;;;8.27;4.22;;;;;;;1.70;62.82;101807.88;8450969;27;20046;-56
2024/01/08 11:40:48;;;;;;;8.43;4.30;;;;;;;1.46;62.51;101814.06;8453081;27;20042;-56
2024/01/08 11:44:49;;;;;;;6.03;4.13;;;;;;;1.48;62.57;101806.91;8452646;27;20036;-56
2024/01/08 11:48:49;;;;;;;5.68;4.28;;;;;;;1.50;61.70;101821.06;8453089;27;20043;-56
2024/01/08 11:52:54;;;;;;;6.55;3.95;;;;;;;1.79;61.86;101812.91;8451779;28;20055;-57
2024/01/08 11:56:55;;;;;;;10.07;4.53;;;;;;;2.55;60.02;101814.50;8449090;27;20090;-58
2024/01/08 12:00:56;;;;;;;8.27;4.40;;;;;;;3.01;57.32;101814.47;8461874;27;20512;-57
2024/01/08 12:04:58;;;;;;;7.57;4.03;;;;;;;3.17;56.56;101812.06;8460213;27;20036;-55
2024/01/08 12:08:58;;;;;;;8.40;4.18;;;;;;;3.09;56.45;101815.03;8452462;27;20044;-56
2024/01/08 12:12:59;;;;;;;7.75;4.78;;;;;;;2.54;56.92;101817.25;8452867;27;20324;-55
2024/01/08 12:17:02;;;;;;;7.88;3.85;;;;;;;2.50;56.96;101816.47;8459008;28;20092;-56
2024/01/08 12:21:03;;;;;;;10.20;4.35;;;;;;;2.21;58.35;101811.38;8455195;28;20107;-57
2024/01/08 12:25:06;;;;;;;5.43;3.85;;;;;;;2.11;57.80;101815.31;8458648;28;20035;-55
2024/01/08 12:29:07;;;;;;;6.10;4.00;;;;;;;1.93;57.45;101800.81;8459315;28;20035;-56
2024/01/08 12:33:08;;;;;;;7.13;4.10;;;;;;;1.92;57.42;101798.22;8458826;27;20031;-59
2024/01/08 12:37:11;;;;;;;7.40;4.38;;;;;;;1.93;57.58;101811.47;8469469;27;20050;-57
2024/01/08 12:41:12;;;;;;;6.27;4.10;;;;;;;1.94;57.76;101804.38;8468548;27;20492;-58
2024/01/08 12:45:12;;;;;;;8.52;4.43;;;;;;;1.92;57.42;101808.88;8455820;28;20490;-59
2024/01/08 12:49:13;;;;;;;9.95;4.47;;;;;;;1.86;58.58;101806.47;8439066;28;20307;-58
2024/01/08 12:53:13;;;;;;;7.95;4.53;;;;;;;1.81;58.91;101811.94;8455192;27;20128;-59
2024/01/08 12:57:15;;;;;;;8.68;3.60;;;;;;;1.73;58.61;101810.44;8437056;28;20043;-58
2024/01/08 13:01:16;;;;;;;9.25;4.32;;;;;;;1.72;57.70;101801.59;8456348;27;20039;-57
2024/01/08 13:05:18;;;;;;;7.40;4.38;;;;;;;1.70;57.46;101807.88;8457939;28;20050;-57
2024/01/08 13:09:19;;;;;;;6.25;3.97;;;;;;;1.67;57.23;101810.66;8458491;28;20039;-59
2024/01/08 13:13:20;;;;;;;8.57;4.03;;;;;;;1.63;56.73;101806.38;8457748;28;20055;-58
2024/01/08 13:17:21;;;;;;;5.38;3.50;;;;;;;1.50;55.45;101810.38;8457429;27;20100;-58
2024/01/08 13:21:22;;;;;;;6.18;3.92;;;;;;;1.36;55.26;101792.22;8473610;27;20031;-59
2024/01/08 13:25:23;;;;;;;7.82;3.63;;;;;;;1.29;54.69;101800.44;8453658;28;20032;-58
2024/01/08 13:29:24;;;;;;;7.68;3.80;;;;;;;1.24;55.98;101808.59;8449755;27;20120;-57
2024/01/08 13:33:24;;;;;;;9.05;4.43;;;;;;;1.18;54.62;101813.25;8453567;28;20036;-59
2024/01/08 13:37:25;;;;;;;6.10;3.50;;;;;;;1.13;54.63;101818.72;8454124;28;20287;-59
2024/01/08 13:41:26;;;;;;;8.38;3.88;;;;;;;1.17;54.37;101807.06;8454153;28;20043;-56
2024/01/08 13:45:26;;;;;;;7.80;3.60;;;;;;;1.17;53.80;101799.06;8452861;27;20036;-56
2024/01/08 13:49:27;;;;;;;6.15;3.47;;;;;;;1.15;53.37;101806.22;8453797;27;20569;-56
2024/01/08 13:53:27;;;;;;;10.90;3.80;;;;;;;1.09;52.69;101818.84;8453643;27;20354;-58
2024/01/08 13:57:28;;;;;;;5.70;3.75;;;;;;;1.08;52.90;101812.69;8452799;27;20031;-59
2024/01/08 14:01:28;;;;;;;7.88;3.40;;;;;;;1.05;52.76;101809.22;8453458;28;20036;-58
2024/01/08 14:05:29;;;;;;;6.53;3.65;;;;;;;1.01;52.39;101815.59;8441436;28;20047;-57
2024/01/08 14:09:29;;;;;;;12.60;3.97;;;;;;;0.99;52.92;101817.41;8452873;28;20493;-58
2024/01/08 14:13:30;;;;;;;5.90;3.47;;;;;;;0.94;53.13;101819.34;8448883;28;20097;-58
2024/01/08 14:17:31;;;;;;;8.45;3.88;;;;;;;0.87;52.74;101828.44;8451420;27;20065;-58
2024/01/08 14:21:32;;;;;;;4.80;4.30;;;;;;;0.86;52.88;101837.38;8452739;28;20383;-58
2024/01/08 14:25:33;;;;;;;7.80;3.60;;;;;;;0.82;52.82;101827.75;8451910;28;20392;-58
2024/01/08 14:29:34;;;;;;;6.47;3.75;;;;;;;0.83;52.92;101837.47;8452237;28;20043;-59
2024/01/08 14:33:35;;;;;;;6.72;3.75;;;;;;;0.87;52.53;101837.31;8452058;27;20042;-58
2024/01/08 14:37:37;;;;;;;5.40;3.42;;;;;;;0.84;53.49;101832.09;8452111;28;20078;-59
2024/01/08 14:41:37;;;;;;;8.02;3.55;;;;;;;0.82;53.77;101835.72;8452033;28;20335;-56
2024/01/08 14:45:38;;;;;;;12.30;3.95;;;;;;;0.78;53.34;101842.03;8447676;28;20031;-58
2024/01/08 14:49:38;;;;;;;7.30;3.97;;;;;;;0.79;53.88;101846.47;8451540;28;20039;-57
2024/01/08 14:53:40;;;;;;;6.28;3.38;;;;;;;0.73;54.87;101838.66;8451592;27;20044;-56
2024/01/08 14:57:41;;;;;;;8.82;4.55;;;;;;;0.58;55.64;101841.78;8437451;27;20552;-57
2024/01/08 15:01:42;;;;;;;8.00;4.07;;;;;;;0.49;56.01;101853.53;8401030;27;20394;-56
2024/01/08 15:05:42;;;;;;;6.97;4.22;;;;;;;0.35;56.00;101854.88;8421607;27;20450;-56
2024/01/08 15:09:45;;;;;;;11.32;4.20;;;;;;;0.32;56.33;101857.59;8462554;27;20070;-56
2024/01/08 15:13:46;;;;;;;7.50;3.90;;;;;;;0.24;56.74;101856.97;8448716;27;20042;-55
2024/01/08 15:17:46;;;;;;;7.25;4.40;;;;;;;0.20;56.75;101852.63;8449425;27;20126;-57
2024/01/08 15:21:50;;;;;;;6.65;4.30;;;;;;;0.20;57.02;101860.63;8448512;27;20055;-58
2024/01/08 15:25:51;;;;;;;8.57;4.10;;;;;;;0.16;56.69;101864.28;8434438;28;20043;-59
2024/01/08 15:29:52;;;;;;;8.50;4.13;;;;;;;0.10;57.66;101875.97;8452907;27;20035;-55
2024/01/08 15:33:52;;;;;;;10.13;4.28;;;;;;;0.03;57.64;101869.94;8440921;27;20589;-56
2024/01/08 15:37:53;;;;;;;12.90;4.75;;;;;;;0.04;56.83;101868.16;8440481;27;20379;-58
2024/01/08 15:41:53;;;;;;;9.05;4.65;;;;;;;0.03;57.38;101881.50;8461273;27;20039;-55
2024/01/08 15:45:54;;;;;;;10.18;4.68;;;;;;;0.03;57.84;101869.03;8458076;27;20066;-57
2024/01/08 15:49:54;;;;;;;9.25;4.65;;;;;;;-0.01;57.95;101894.84;8466464;27;20794;-56
2024/01/08 15:53:55;;;;;;;9.68;4.30;;;;;;;-0.08;58.38;101893.28;8465043;27;20099;-57
2024/01/08 15:57:55;;;;;;;11.43;4.70;;;;;;;-0.03;58.21;101896.69;8464815;27;20431;-59
2024/01/08 16:01:55;;;;;;;10.75;4.35;;;;;;;-0.10;58.45;101904.84;8466570;27;20043;-57
2024/01/08 16:05:56;;;;;;;9.68;4.90;;;;;;;-0.13;58.08;101908.47;8467404;27;20537;-59
2024/01/08 16:09:57;;;;;;;8.70;4.50;;;;;;;-0.12;57.99;101901.38;8456016;27;20050;-58
2024/01/08 16:13:57;;;;;;;9.65;5.13;;;;;;;-0.11;57.36;101909.31;8461570;27;20051;-55
2024/01/08 16:17:58;;;;;;;8.75;4.40;;;;;;;-0.11;57.37;101909.31;8459021;27;20399;-56
2024/01/08 16:22:00;;;;;;;10.73;4.50;;;;;;;-0.10;57.45;101913.69;8452396;27;20039;-56
2024/01/08 16:26:00;;;;;;;10.07;4.80;;;;;;;-0.15;57.84;101923.56;8450505;27;20047;-57
2024/01/08 16:30:01;;;;;;;10.52;4.65;;;;;;;-0.20;57.99;101932.56;8452016;27;20110;-56
2024/01/08 16:34:01;;;;;;;9.43;4.22;;;;;;;-0.21;57.76;101928.19;8452373;28;20042;-56
2024/01/08 16:38:02;;;;;;;7.72;4.38;;;;;;;-0.20;57.21;101938.78;8449426;28;20036;-56
2024/01/08 16:42:03;;;;;;;8.50;4.25;;;;;;;-0.25;57.93;101938.00;8434625;28;20038;-56
2024/01/08 16:46:03;;;;;;;9.55;5.55;;;;;;;-0.29;57.93;101938.13;8449779;28;20122;-56
2024/01/08 16:50:04;;;;;;;10.55;4.85;;;;;;;-0.26;57.81;101940.69;8453506;28;20787;-57
2024/01/08 16:54:04;;;;;;;9.98;4.60;;;;;;;-0.27;57.31;101944.28;8450820;28;20560;-57
2024/01/08 16:58:05;;;;;;;9.65;4.65;;;;;;;-0.34;57.93;101948.84;8452213;28;20032;-56
2024/01/08 17:02:05;;;;;;;9.32;5.00;;;;;;;-0.34;57.41;101958.59;8432650;27;20043;-56
2024/01/08 17:06:06;;;;;;;10.10;5.03;;;;;;;-0.34;57.74;101953.28;8447987;27;20035;-57
2024/01/08 17:10:08;;;;;;;12.95;4.50;;;;;;;-0.39;57.42;101961.38;8451288;27;20043;-56
2024/01/08 17:14:10;;;;;;;10.48;5.35;;;;;;;-0.41;57.46;101973.84;8449082;27;20085;-55
2024/01/08 17:18:10;;;;;;;9.20;4.53;;;;;;;-0.43;57.72;101970.31;8451403;28;20075;-59
2024/01/08 17:22:11;;;;;;;10.75;5.07;;;;;;;-0.49;58.29;101969.63;8462769;27;20069;-58
2024/01/08 17:26:11;;;;;;;10.45;5.55;;;;;;;-0.49;58.46;101981.09;8448639;28;20043;-57
2024/01/08 17:30:12;;;;;;;13.75;5.45;;;;;;;-0.49;57.66;101982.91;8443840;28;20042;-57
2024/01/08 17:34:12;;;;;;;9.77;5.05;;;;;;;-0.58;57.79;101981.31;8462466;27;20082;-57
2024/01/08 17:38:17;;;;;;;17.10;5.63;;;;;;;-0.59;58.45;101978.69;8449501;28;20401;-58
2024/01/08 17:42:17;;;;;;;11.10;5.88;;;;;;;-0.60;58.29;101983.16;8432736;28;20032;-58
2024/01/08 17:46:18;;;;;;;10.18;6.05;;;;;;;-0.62;58.23;101987.59;8449648;28;20046;-58
2024/01/08 17:50:19;;;;;;;12.85;6.22;;;;;;;-0.60;58.34;101993.75;8432361;28;20050;-57
2024/01/08 17:54:21;;;;;;;10.15;5.22;;;;;;;-0.57;58.14;101993.69;8449488;28;20039;-59
2024/01/08 17:58:22;;;;;;;8.63;5.60;;;;;;;-0.64;58.85;102005.34;8448836;27;20458;-58
2024/01/08 18:02:22;;;;;;;14.43;6.03;;;;;;;-0.67;58.38;102000.09;8452619;27;20036;-57
2024/01/08 18:06:23;;;;;;;13.95;5.93;;;;;;;-0.69;58.02;102009.91;8450350;27;20035;-56
2024/01/08 18:10:23;;;;;;;14.45;5.75;;;;;;;-0.69;58.08;102009.91;8441711;27;20040;-56
2024/01/08 18:14:27;;;;;;;10.07;5.53;;;;;;;-0.70;57.50;102013.44;8450805;27;20571;-56
2024/01/08 18:18:28;;;;;;;;;;;;;;;-0.75;58.18;102007.38;8453050;27;20413;-57
2024/01/08 18:22:29;;;;;;;13.68;6.13;;;;;;;-0.75;57.25;102015.34;8469135;27;20403;-59
2024/01/08 18:26:29;;;;;;;13.50;5.85;;;;;;;-0.74;57.15;102019.72;8452343;28;20387;-58
2024/01/08 18:30:30;;;;;;;13.80;6.80;;;;;;;-0.79;57.56;102024.25;8451662;27;20444;-55
2024/01/08 18:34:30;;;;;;;13.73;6.25;;;;;;;-0.80;57.49;102026.94;8449593;28;20044;-58
2024/01/08 18:38:31;;;;;;;12.18;5.88;;;;;;;-0.83;57.19;102027.88;8451553;28;20115;-57
2024/01/08 18:42:32;;;;;;;13.65;6.30;;;;;;;-0.94;58.14;102031.69;8451951;28;20036;-58